CheckWX is a tool to help pilots better visualize weather data.  It is not intended as a substitute for an official pre-flight weather briefing.

06:12:56 UTC

KWWR METAR
West Woodward Airport
Woodward, Oklahoma, USA
Current

18 mins ago

KWWR 280555Z AUTO 07013G19KT 10SM -DZ OVC042 04/01 A2996 RMK AO2 LTG DSNT S AND SW
Observed
Jan-28 @ 05:55 UTC
Wind
  • 070° at 13 KTS
  • Gusting to 19 KTS
Visibility
10 SM
Flight Rules
VFR
Conditions
Light Drizzle
Cloud Levels
  • Overcast at 4,200' AGL
Temperature
C / 39°F
Dewpoint
C / 34°F
Humidity
81%
Altimeter
29.96" Hg
Pressure
1014.52 hPa
Previous

38 mins ago

KWWR 280535Z AUTO 06015G19KT 10SM SCT035 BKN042 OVC085 04/01 A2996 RMK AO2 LTG DSNT SW
Observed
Jan-28 @ 05:35 UTC
Wind
  • 060° at 15 KTS
  • Gusting to 19 KTS
Visibility
10 SM
Flight Rules
VFR
Cloud Levels
  • Scattered at 3,500' AGL
  • Broken at 4,200' AGL
  • Overcast at 8,500' AGL
Temperature
C / 39°F
Dewpoint
C / 34°F
Humidity
81%
Altimeter
29.96" Hg
Pressure
1014.52 hPa
Previous

58 mins ago

KWWR 280515Z AUTO 06016KT 10SM OVC044 05/01 A2996 RMK AO2
Observed
Jan-28 @ 05:15 UTC
Wind
  • 060° at 16 KTS
Visibility
10 SM
Flight Rules
VFR
Cloud Levels
  • Overcast at 4,400' AGL
Temperature
C / 41°F
Dewpoint
C / 34°F
Humidity
76%
Altimeter
29.96" Hg
Pressure
1014.52 hPa